Time;durP1;ratioP1;P1;durP2;ratioP2;P2;SDS_P1;SDS_P2;PMS_P1;PMS_P2;Temp;Humidity;BMP_temperature;BMP_pressure;BME280_temperature;BME280_humidity;BME280_pressure;Samples;Min_cycle;Max_cycle;Signal;HPM_P1;HPM_P2
2021/01/19 00:02:04;;;;;;;6.45;2.60;;;;;;;1.49;75.15;99551.44;4885059;29;20157;-73
2021/01/19 00:04:29;;;;;;;3.45;2.28;;;;;;;1.47;75.08;99554.78;4885534;29;20043;-73
2021/01/19 00:06:54;;;;;;;9.02;2.33;;;;;;;1.48;74.58;99553.97;4885438;29;20398;-73
2021/01/19 00:09:20;;;;;;;3.22;2.05;;;;;;;1.45;74.14;99554.75;4885284;29;20486;-73
2021/01/19 00:11:45;;;;;;;9.18;2.17;;;;;;;1.46;74.80;99550.50;4884938;29;20039;-73
2021/01/19 00:14:10;;;;;;;6.80;3.03;;;;;;;1.41;74.76;99552.91;4885321;29;20156;-73
2021/01/19 00:16:36;;;;;;;3.13;2.00;;;;;;;1.47;73.99;99548.00;4885131;29;20028;-73
2021/01/19 00:19:01;;;;;;;5.00;2.10;;;;;;;1.44;75.10;99547.03;4885151;29;20036;-75
2021/01/19 00:21:26;;;;;;;2.83;1.90;;;;;;;1.42;76.43;99538.47;4884888;29;20040;-75
2021/01/19 00:23:52;;;;;;;3.22;2.30;;;;;;;1.45;73.62;99538.53;4880719;29;20025;-74
2021/01/19 00:26:17;;;;;;;5.32;2.08;;;;;;;1.47;74.11;99547.13;4880504;29;20574;-73
2021/01/19 00:28:42;;;;;;;3.08;2.10;;;;;;;1.52;73.54;99545.59;4880447;29;20120;-73
2021/01/19 00:31:08;;;;;;;4.30;2.10;;;;;;;1.52;73.83;99535.38;4880238;29;20028;-73
2021/01/19 00:33:34;;;;;;;5.68;2.15;;;;;;;1.59;73.37;99541.53;4880553;29;20029;-73
2021/01/19 00:35:59;;;;;;;6.78;1.90;;;;;;;1.61;72.01;99528.00;4880466;29;20036;-72
2021/01/19 00:38:25;;;;;;;4.38;2.15;;;;;;;1.58;72.09;99535.53;4880172;29;20611;-72
2021/01/19 00:40:50;;;;;;;4.50;2.00;;;;;;;1.64;73.44;99530.63;4880179;29;20033;-72
2021/01/19 00:43:15;;;;;;;4.20;2.13;;;;;;;1.57;72.54;99538.94;4880179;29;20029;-74
2021/01/19 00:45:41;;;;;;;3.63;1.60;;;;;;;1.63;72.03;99528.88;4880264;29;20033;-75
2021/01/19 00:48:07;;;;;;;4.30;1.88;;;;;;;1.65;73.16;99532.38;4879979;29;20379;-75
2021/01/19 00:50:32;;;;;;;2.80;1.73;;;;;;;1.62;74.44;99533.97;4880124;29;20390;-74
2021/01/19 00:52:57;;;;;;;3.58;1.65;;;;;;;1.61;72.31;99525.44;4879782;29;20032;-73
2021/01/19 00:55:23;;;;;;;5.65;2.13;;;;;;;1.60;72.33;99523.72;4879934;29;20032;-73
2021/01/19 00:57:48;;;;;;;3.42;1.50;;;;;;;1.57;73.15;99518.50;4879866;29;20021;-74
2021/01/19 07:02:17;;;;;;;4.00;2.87;;;;;;;-0.10;74.85;99174.28;5061154;23;19923;-71
2021/01/19 07:04:47;;;;;;;3.78;2.70;;;;;;;0.13;73.31;99161.38;4915572;29;20493;-71
2021/01/19 07:07:35;;;;;;;9.73;2.47;;;;;;;0.07;73.70;99156.97;4902448;29;20125;-71
2021/01/19 07:10:21;;;;;;;4.55;2.72;;;;;;;0.08;73.54;99147.63;4900293;29;20027;-71
2021/01/19 07:13:08;;;;;;;10.40;3.67;;;;;;;0.11;73.82;99140.97;4896703;29;20390;-71
2021/01/19 07:16:06;;;;;;;4.43;2.38;;;;;;;-0.02;72.17;99143.94;4881288;29;20507;-69
2021/01/19 07:18:48;;;;;;;4.72;2.53;;;;;;;-0.11;73.49;99161.50;4886330;29;20061;-70
2021/01/19 07:21:16;;;;;;;5.95;2.95;;;;;;;-0.33;75.18;99153.22;4890903;29;20112;-70
2021/01/19 07:23:44;;;;;;;6.35;3.03;;;;;;;-0.32;75.46;99149.84;4879989;29;20518;-70
2021/01/19 07:26:12;;;;;;;6.63;2.78;;;;;;;-0.41;76.64;99152.09;4877888;29;20096;-70
2021/01/19 07:28:39;;;;;;;6.47;2.83;;;;;;;-0.37;75.42;99148.84;4877476;29;20025;-70
2021/01/19 07:31:04;;;;;;;7.32;2.45;;;;;;;-0.30;77.94;99140.56;4877585;29;20037;-70
2021/01/19 07:33:30;;;;;;;4.45;2.88;;;;;;;-0.45;76.33;99140.09;4877755;29;20037;-70
2021/01/19 07:35:57;;;;;;;6.78;2.90;;;;;;;-0.24;75.08;99142.47;4877534;29;20514;-70
2021/01/19 07:38:23;;;;;;;4.30;2.60;;;;;;;-0.12;75.58;99126.66;4877731;29;20036;-70
2021/01/19 07:40:48;;;;;;;3.10;1.92;;;;;;;-0.09;73.13;99120.00;4877470;29;20036;-70
2021/01/19 07:43:16;;;;;;;4.70;2.70;;;;;;;-0.02;72.14;99121.03;4877810;29;20399;-70
2021/01/19 07:45:50;;;;;;;2.88;2.22;;;;;;;0.00;72.52;99121.97;4877379;29;20128;-70
2021/01/19 07:48:15;;;;;;;7.40;2.80;;;;;;;0.12;72.31;99119.75;4877683;29;20029;-70
2021/01/19 07:50:43;;;;;;;7.13;3.03;;;;;;;0.21;72.26;99119.16;4891506;29;20037;-71
2021/01/19 07:53:09;;;;;;;5.40;2.47;;;;;;;0.28;71.56;99099.81;4877640;29;20039;-72
2021/01/19 07:55:46;;;;;;;7.22;2.45;;;;;;;0.30;71.29;99103.28;4877321;29;20032;-72
2021/01/19 07:58:19;;;;;;;4.43;2.67;;;;;;;0.27;70.81;99101.50;4877474;29;20029;-70
2021/01/19 08:01:03;;;;;;;8.82;3.83;;;;;;;0.19;71.31;99105.50;4877241;29;20036;-70
2021/01/19 08:03:29;;;;;;;7.70;3.50;;;;;;;0.30;72.76;99098.19;4877847;29;20028;-70
2021/01/19 08:05:55;;;;;;;9.95;4.35;;;;;;;0.31;72.86;99092.25;4880732;29;20025;-70
2021/01/19 08:08:21;;;;;;;8.57;4.03;;;;;;;0.27;72.20;99087.88;4880624;29;20036;-71
2021/01/19 08:10:57;;;;;;;5.20;3.63;;;;;;;0.35;72.10;99086.44;4880458;29;20029;-70
2021/01/19 08:13:23;;;;;;;4.88;2.63;;;;;;;0.27;72.02;99075.16;4880596;29;20033;-70
2021/01/19 08:16:04;;;;;;;12.98;3.97;;;;;;;0.54;72.21;99072.50;4880621;29;20029;-70
2021/01/19 08:18:37;;;;;;;12.63;5.68;;;;;;;0.66;70.68;99072.81;4880494;29;20044;-70
2021/01/19 08:21:07;;;;;;;16.85;6.20;;;;;;;0.62;70.17;99071.84;4879004;29;20037;-70
2021/01/19 08:23:34;;;;;;;20.88;8.10;;;;;;;0.67;69.53;99062.63;4880227;29;20044;-70
2021/01/19 08:26:08;;;;;;;10.05;3.90;;;;;;;1.72;67.37;99048.97;4880529;29;20507;-69
2021/01/19 08:28:37;;;;;;;15.40;5.75;;;;;;;3.20;62.53;99043.19;4880248;29;20057;-70
2021/01/19 08:31:15;;;;;;;63.05;24.73;;;;;;;3.56;59.90;99036.88;4880196;29;20036;-70
2021/01/19 08:33:41;;;;;;;39.30;15.77;;;;;;;4.09;58.92;99029.91;4880155;29;20340;-70
2021/01/19 08:36:08;;;;;;;41.10;17.23;;;;;;;4.82;55.93;99028.94;4880276;29;20490;-70
2021/01/19 08:38:33;;;;;;;20.98;6.07;;;;;;;5.55;54.94;99008.06;4880028;29;20021;-70
2021/01/19 08:40:58;;;;;;;21.45;9.20;;;;;;;6.56;50.57;99005.91;4879940;29;20085;-70
2021/01/19 08:43:24;;;;;;;13.57;6.15;;;;;;;6.99;48.66;99003.38;4880190;29;20029;-70
2021/01/19 08:45:49;;;;;;;9.50;5.13;;;;;;;6.62;49.68;99005.91;4880012;29;20517;-70
2021/01/19 08:48:15;;;;;;;24.08;9.02;;;;;;;6.23;49.59;99004.97;4879975;29;20024;-70
2021/01/19 08:50:42;;;;;;;21.75;8.55;;;;;;;6.60;48.57;98999.94;4879835;29;20089;-70
2021/01/19 08:53:10;;;;;;;59.00;23.67;;;;;;;6.88;48.37;99001.66;4880247;29;20021;-70
2021/01/19 08:55:35;;;;;;;27.20;11.57;;;;;;;7.31;46.71;99004.22;4879857;29;20115;-70
2021/01/19 08:58:01;;;;;;;12.00;4.40;;;;;;;7.79;44.35;99005.00;4880020;29;20116;-70
2021/01/19 09:00:33;;;;;;;42.30;16.33;;;;;;;6.35;46.97;99020.47;4879553;29;20431;-70
2021/01/19 09:02:59;;;;;;;10.85;4.88;;;;;;;6.17;48.33;99021.25;4879807;29;20025;-70
2021/01/19 09:05:31;;;;;;;7.75;3.42;;;;;;;5.64;49.58;99018.41;4878859;29;20032;-70
2021/01/19 09:07:57;;;;;;;7.43;3.63;;;;;;;5.39;50.80;99027.69;4898493;29;20386;-70
2021/01/19 09:10:27;;;;;;;28.48;10.15;;;;;;;3.88;54.95;99031.34;4898230;29;20534;-70
2021/01/19 09:12:53;;;;;;;;;;;;;;;3.86;56.01;99034.72;4898701;29;20040;-70
2021/01/19 09:15:19;;;;;;;35.78;11.38;;;;;;;3.94;55.34;99032.28;4897800;29;19912;-70
2021/01/19 09:17:55;;;;;;;17.30;6.80;;;;;;;3.58;56.54;99045.47;4898151;29;20067;-69
2021/01/19 09:20:22;;;;;;;15.85;6.38;;;;;;;3.27;58.93;99044.16;4896870;29;20473;-66
2021/01/19 09:22:47;;;;;;;17.45;6.63;;;;;;;3.39;58.39;99039.22;4897835;29;20059;-70
2021/01/19 09:25:13;;;;;;;17.65;7.45;;;;;;;3.08;59.47;99053.22;4898163;29;20063;-72
2021/01/19 09:27:40;;;;;;;11.27;5.05;;;;;;;2.80;59.75;99046.78;4897356;29;20478;-72
2021/01/19 09:30:05;;;;;;;22.50;8.50;;;;;;;2.77;60.27;99042.50;4897562;29;20029;-69
2021/01/19 09:32:32;;;;;;;9.32;3.92;;;;;;;2.52;61.02;99032.66;4897137;29;20033;-69
2021/01/19 09:34:58;;;;;;;13.93;5.75;;;;;;;2.84;60.11;99026.38;4897462;29;20032;-69
2021/01/19 09:37:27;;;;;;;13.45;6.78;;;;;;;2.62;60.47;99014.09;4897841;29;20078;-73
2021/01/19 09:39:52;;;;;;;10.48;3.85;;;;;;;2.70;60.99;99014.19;4897628;29;20191;-73
2021/01/19 09:42:18;;;;;;;11.50;4.60;;;;;;;2.52;62.89;99007.09;4897566;29;20453;-73
2021/01/19 09:44:44;;;;;;;88.10;25.83;;;;;;;2.48;62.99;99008.72;4897608;29;20032;-69
2021/01/19 09:47:11;;;;;;;25.40;9.88;;;;;;;2.66;62.11;99010.75;4897792;29;20398;-69
2021/01/19 09:49:40;;;;;;;12.65;6.30;;;;;;;2.25;62.27;99003.19;4897359;29;20021;-69
2021/01/19 09:52:10;;;;;;;30.90;8.05;;;;;;;2.37;62.34;99001.69;4897419;29;20025;-69
2021/01/19 09:54:35;;;;;;;;;;;;;;;2.11;62.30;99001.19;4897901;29;20064;-68
2021/01/19 09:57:01;;;;;;;13.13;5.53;;;;;;;2.14;63.52;98991.91;4897320;29;19912;-70
2021/01/19 09:59:28;;;;;;;10.77;5.18;;;;;;;2.20;63.44;98992.03;4896860;29;20108;-69
2021/01/19 10:01:55;;;;;;;17.85;6.00;;;;;;;2.34;63.70;98978.63;4896715;29;20028;-73
2021/01/19 10:04:20;;;;;;;35.50;10.82;;;;;;;2.04;64.59;98969.56;4897045;29;20041;-74
2021/01/19 10:06:46;;;;;;;83.88;21.92;;;;;;;2.15;63.53;98962.97;4895646;29;20028;-70
2021/01/19 10:09:24;;;;;;;40.10;12.35;;;;;;;2.43;64.15;98959.19;4897086;29;20040;-69
2021/01/19 10:12:00;;;;;;;19.65;9.48;;;;;;;2.51;64.25;98954.19;4896614;29;20464;-73
2021/01/19 10:14:34;;;;;;;25.85;10.38;;;;;;;2.37;62.88;98948.00;4897589;29;20028;-69
2021/01/19 10:17:00;;;;;;;51.47;23.90;;;;;;;2.63;64.77;98949.31;4896604;29;20482;-74
2021/01/19 10:19:30;;;;;;;26.20;11.23;;;;;;;2.67;63.62;98943.41;4900539;29;20035;-75
2021/01/19 10:21:57;;;;;;;11.25;5.07;;;;;;;2.87;62.88;98930.06;4896714;29;20115;-75
2021/01/19 10:24:24;;;;;;;9.35;3.38;;;;;;;2.82;62.10;98928.28;4896835;29;20052;-74
2021/01/19 10:27:00;;;;;;;10.75;4.95;;;;;;;2.77;62.68;98927.38;4896028;29;20060;-75
2021/01/19 10:29:27;;;;;;;7.25;4.10;;;;;;;2.81;62.80;98924.03;4896880;29;20407;-70
2021/01/19 10:32:00;;;;;;;8.82;3.47;;;;;;;2.50;64.80;98925.22;4897249;29;20111;-70
2021/01/19 10:34:27;;;;;;;14.73;7.03;;;;;;;2.91;63.67;98919.03;4900737;29;20024;-69
2021/01/19 10:36:54;;;;;;;6.47;3.70;;;;;;;2.56;64.15;98914.22;4888383;29;20044;-75
2021/01/19 10:39:23;;;;;;;8.45;4.80;;;;;;;2.79;62.98;98907.75;4888009;29;20029;-73
2021/01/19 10:41:49;;;;;;;9.88;4.13;;;;;;;2.90;64.63;98907.06;4887149;29;20020;-70
2021/01/19 10:44:15;;;;;;;9.70;4.90;;;;;;;2.99;63.64;98904.63;4888353;29;20055;-70
2021/01/19 10:46:42;;;;;;;5.68;3.63;;;;;;;3.07;61.99;98895.38;4888362;29;20498;-69
2021/01/19 10:49:16;;;;;;;8.02;3.13;;;;;;;2.60;63.67;98887.00;4888448;29;20536;-73
2021/01/19 10:51:44;;;;;;;7.57;3.63;;;;;;;2.74;62.98;98878.69;4887976;29;20056;-70
2021/01/19 10:54:13;;;;;;;59.75;19.80;;;;;;;2.76;63.74;98882.16;4887180;29;20430;-70
2021/01/19 10:56:44;;;;;;;16.00;6.10;;;;;;;2.69;64.29;98867.53;4888612;29;20037;-70
2021/01/19 10:59:10;;;;;;;12.73;3.72;;;;;;;2.54;64.54;98869.88;4887557;29;20099;-69
2021/01/19 11:01:36;;;;;;;9.13;4.20;;;;;;;2.51;64.39;98859.59;4887709;29;20399;-69
2021/01/19 11:04:04;;;;;;;10.88;3.08;;;;;;;2.65;64.31;98852.97;4886832;29;20099;-68
2021/01/19 11:06:31;;;;;;;5.97;3.30;;;;;;;2.73;64.53;98846.28;4888097;29;20033;-70
2021/01/19 11:08:56;;;;;;;6.70;4.00;;;;;;;2.89;63.32;98842.22;4887012;29;20506;-70
2021/01/19 11:11:22;;;;;;;22.90;4.72;;;;;;;2.89;63.71;98836.25;4887784;29;20044;-70
2021/01/19 11:13:47;;;;;;;13.73;4.90;;;;;;;2.75;64.69;98824.13;4888122;29;20028;-70
2021/01/19 11:16:12;;;;;;;11.07;3.83;;;;;;;2.70;65.43;98818.09;4887670;29;20032;-69
2021/01/19 11:18:38;;;;;;;6.00;3.67;;;;;;;2.58;64.31;98810.25;4887053;29;20704;-69
2021/01/19 11:21:04;;;;;;;9.88;4.65;;;;;;;2.65;64.49;98806.94;4887908;29;21630;-70
2021/01/19 11:23:30;;;;;;;7.03;3.97;;;;;;;2.74;64.43;98796.84;4888177;29;20040;-70
2021/01/19 11:25:55;;;;;;;8.48;4.03;;;;;;;2.82;64.67;98792.69;4887945;29;20029;-70
2021/01/19 11:28:21;;;;;;;9.43;4.93;;;;;;;2.82;63.65;98789.28;4887844;29;20104;-74
2021/01/19 11:30:47;;;;;;;12.32;5.00;;;;;;;2.62;64.18;98786.47;4887764;29;20036;-74
2021/01/19 11:33:12;;;;;;;9.82;3.55;;;;;;;2.70;64.04;98779.72;4888277;29;20119;-70
2021/01/19 11:35:38;;;;;;;53.22;15.98;;;;;;;2.83;64.23;98780.75;4887799;29;20123;-70
2021/01/19 11:38:03;;;;;;;64.45;20.92;;;;;;;2.76;62.52;98774.72;4888919;29;20043;-75
2021/01/19 11:40:29;;;;;;;24.27;10.05;;;;;;;2.79;64.46;98779.00;4890417;29;20067;-74
2021/01/19 11:42:55;;;;;;;11.02;4.80;;;;;;;2.82;62.90;98774.78;4890770;29;20036;-74
2021/01/19 11:45:21;;;;;;;10.38;4.28;;;;;;;2.89;62.78;98765.47;4890603;29;20139;-74
2021/01/19 11:47:46;;;;;;;16.73;7.20;;;;;;;2.78;62.93;98757.66;4891477;29;20041;-74
2021/01/19 11:50:12;;;;;;;8.23;4.75;;;;;;;3.03;63.37;98773.31;4891004;29;20035;-74
2021/01/19 11:52:38;;;;;;;30.20;12.52;;;;;;;3.12;63.73;98780.25;4900909;29;20371;-74
2021/01/19 11:55:04;;;;;;;7.65;3.95;;;;;;;3.23;60.63;98761.59;4891222;29;20033;-76
2021/01/19 11:57:30;;;;;;;8.00;4.20;;;;;;;2.97;64.85;98763.00;4886776;29;20098;-70
2021/01/19 11:59:55;;;;;;;49.50;17.65;;;;;;;3.13;62.76;98752.09;4890985;29;20115;-69
2021/01/19 12:02:20;;;;;;;24.40;10.10;;;;;;;3.28;62.91;98754.81;4891095;29;20036;-69
2021/01/19 12:04:46;;;;;;;3.80;3.10;;;;;;;3.55;62.33;98743.16;4891144;29;20039;-69
2021/01/19 12:07:11;;;;;;;8.80;5.20;;;;;;;3.31;62.50;98729.25;4891208;29;20040;-68
2021/01/19 12:09:37;;;;;;;10.23;5.18;;;;;;;3.40;63.87;98725.09;4890919;29;20048;-68
2021/01/19 12:12:02;;;;;;;6.72;3.92;;;;;;;3.49;63.78;98728.59;4890793;29;20119;-69
2021/01/19 12:14:28;;;;;;;9.93;4.05;;;;;;;3.30;65.78;98726.69;4890834;29;20410;-69
2021/01/19 12:16:59;;;;;;;14.10;4.20;;;;;;;3.03;65.18;98727.25;4891066;29;20029;-69
2021/01/19 12:19:25;;;;;;;7.07;3.83;;;;;;;3.39;62.96;98721.66;4891182;29;20460;-69
2021/01/19 12:21:53;;;;;;;15.30;6.90;;;;;;;2.96;66.14;98721.22;4890660;29;20032;-69
2021/01/19 12:24:19;;;;;;;13.38;5.15;;;;;;;2.78;67.55;98721.00;4890741;29;20060;-69
2021/01/19 12:26:49;;;;;;;12.93;5.60;;;;;;;3.11;66.52;98715.41;4890793;29;20043;-69
2021/01/19 12:29:16;;;;;;;11.70;5.53;;;;;;;3.04;68.19;98703.38;4890744;29;20553;-69
2021/01/19 12:31:41;;;;;;;13.43;6.18;;;;;;;3.27;67.20;98701.91;4890450;29;20446;-69
2021/01/19 12:34:07;;;;;;;14.50;4.93;;;;;;;3.02;67.73;98694.81;4890744;29;20032;-69
2021/01/19 12:36:32;;;;;;;5.85;4.18;;;;;;;2.95;67.40;98693.91;4890626;29;20131;-69
2021/01/19 12:39:02;;;;;;;10.90;4.05;;;;;;;3.05;67.56;98682.06;4890602;29;20954;-69
2021/01/19 12:41:28;;;;;;;4.60;3.67;;;;;;;3.31;66.19;98677.19;4890187;29;20035;-69
2021/01/19 12:43:54;;;;;;;10.70;4.28;;;;;;;3.23;67.37;98674.56;4890564;29;20040;-69
2021/01/19 12:46:20;;;;;;;6.82;3.80;;;;;;;3.28;66.99;98678.00;4890486;29;20048;-74
2021/01/19 12:48:45;;;;;;;9.82;3.78;;;;;;;3.45;66.77;98664.53;4889721;29;20112;-75
2021/01/19 12:51:18;;;;;;;7.15;3.45;;;;;;;3.76;65.64;98671.59;4889428;29;20498;-75
2021/01/19 12:53:45;;;;;;;8.95;3.42;;;;;;;3.80;64.10;98665.63;4899810;29;20032;-75
2021/01/19 12:56:14;;;;;;;9.30;4.00;;;;;;;3.66;64.95;98668.94;4890238;29;20032;-75
2021/01/19 12:58:40;;;;;;;7.70;3.10;;;;;;;3.98;64.45;98656.38;4890161;29;20033;-75
2021/01/19 13:01:06;;;;;;;7.72;3.15;;;;;;;3.81;64.64;98648.56;4889784;29;20093;-75
2021/01/19 13:03:31;;;;;;;5.78;3.40;;;;;;;3.78;63.21;98643.44;4890012;29;20119;-75
2021/01/19 13:05:57;;;;;;;6.82;2.88;;;;;;;3.72;65.33;98644.22;4890249;29;20028;-76
2021/01/19 13:08:23;;;;;;;6.93;2.90;;;;;;;3.68;65.19;98631.41;4890035;29;20033;-75
2021/01/19 13:10:48;;;;;;;5.90;2.47;;;;;;;3.71;64.93;98637.38;4888669;29;20769;-75
2021/01/19 13:13:14;;;;;;;4.55;2.80;;;;;;;3.78;64.27;98631.47;4889695;29;20044;-75
2021/01/19 13:15:39;;;;;;;4.30;2.60;;;;;;;3.90;64.30;98640.09;4889809;29;20032;-74
2021/01/19 13:18:05;;;;;;;7.25;3.03;;;;;;;3.85;67.17;98633.22;4890638;29;21432;-75
2021/01/19 13:20:30;;;;;;;3.67;2.58;;;;;;;4.00;65.77;98634.16;4889128;29;20174;-76
2021/01/19 13:22:55;;;;;;;3.72;2.63;;;;;;;3.95;66.96;98638.41;4889847;29;20128;-75
2021/01/19 13:25:21;;;;;;;3.72;2.30;;;;;;;3.92;67.13;98623.03;4889583;29;20031;-76
2021/01/19 13:27:46;;;;;;;4.50;2.60;;;;;;;3.85;66.05;98628.09;4904176;29;20040;-75
2021/01/19 13:30:12;;;;;;;6.90;3.00;;;;;;;4.08;65.38;98617.13;4889497;29;20033;-76
2021/01/19 13:32:37;;;;;;;5.10;2.25;;;;;;;3.76;67.50;98610.09;4889272;29;20040;-75
2021/01/19 13:35:03;;;;;;;11.85;3.42;;;;;;;3.95;65.91;98620.47;4888365;29;20212;-69
2021/01/19 13:37:28;;;;;;;10.10;7.20;;;;;;;3.98;65.97;98615.38;4888162;29;20103;-69
2021/01/19 13:39:54;;;;;;;8.57;3.17;;;;;;;4.20;66.60;98617.16;4889377;29;20104;-69
2021/01/19 13:42:20;;;;;;;10.23;6.00;;;;;;;4.16;65.62;98606.88;4889102;29;21477;-69
2021/01/19 13:44:45;;;;;;;4.22;2.63;;;;;;;4.27;65.92;98606.09;4888109;29;20069;-69
2021/01/19 13:47:10;;;;;;;4.82;1.88;;;;;;;4.26;65.92;98617.22;4889363;29;20165;-69
2021/01/19 13:49:36;;;;;;;6.65;2.22;;;;;;;4.28;65.85;98612.94;4888605;29;20119;-69
2021/01/19 13:52:01;;;;;;;4.85;3.00;;;;;;;4.28;66.70;98607.81;4889107;29;20037;-69
2021/01/19 13:54:27;;;;;;;8.13;2.10;;;;;;;4.27;67.36;98611.22;4889195;29;20044;-69
2021/01/19 13:56:52;;;;;;;7.70;3.95;;;;;;;4.28;65.99;98605.25;4889277;29;21119;-75
2021/01/19 13:59:17;;;;;;;5.72;3.20;;;;;;;4.33;66.98;98603.56;4889166;29;20684;-75
2021/01/19 14:01:47;;;;;;;14.57;7.38;;;;;;;4.32;66.24;98591.59;4888766;29;20033;-75
2021/01/19 14:04:12;;;;;;;6.75;2.60;;;;;;;4.33;67.60;98606.13;4888910;29;20743;-75
2021/01/19 14:06:38;;;;;;;5.53;2.25;;;;;;;4.38;66.30;98607.00;4888933;29;20041;-75
2021/01/19 14:09:03;;;;;;;4.95;2.65;;;;;;;4.43;67.72;98608.72;4888846;29;20037;-69
2021/01/19 14:11:28;;;;;;;3.30;2.17;;;;;;;4.15;68.00;98606.03;4888747;29;20040;-69
2021/01/19 14:13:57;;;;;;;25.10;12.48;;;;;;;4.33;68.34;98613.81;4889059;29;20494;-69
2021/01/19 14:16:22;;;;;;;5.80;2.33;;;;;;;4.49;67.72;98619.00;4888936;29;20055;-69
2021/01/19 14:18:48;;;;;;;6.15;1.98;;;;;;;4.43;68.06;98624.13;4888745;29;20025;-69
2021/01/19 14:21:17;;;;;;;4.00;1.63;;;;;;;4.48;67.25;98620.72;4888742;29;20056;-69
2021/01/19 14:23:43;;;;;;;17.65;8.75;;;;;;;4.38;67.45;98622.38;4888590;29;20707;-69
2021/01/19 14:26:08;;;;;;;4.15;1.85;;;;;;;4.59;66.79;98620.75;4888315;29;20387;-69
2021/01/19 14:28:34;;;;;;;6.35;2.40;;;;;;;4.44;67.48;98630.94;4886315;29;20035;-69
2021/01/19 14:30:59;;;;;;;2.75;1.38;;;;;;;4.37;67.31;98622.38;4888476;29;20040;-75
2021/01/19 14:33:25;;;;;;;2.90;1.40;;;;;;;4.21;68.70;98625.75;4887308;29;20108;-75
2021/01/19 14:35:52;;;;;;;2.78;1.27;;;;;;;4.44;69.16;98631.81;4888566;29;20032;-74
2021/01/19 14:38:18;;;;;;;2.92;1.40;;;;;;;4.54;68.99;98637.84;4888490;29;20056;-76
2021/01/19 14:40:44;;;;;;;2.55;1.40;;;;;;;4.64;67.70;98639.56;4885606;29;20028;-76
2021/01/19 14:43:09;;;;;;;5.38;1.45;;;;;;;4.33;67.81;98644.59;4888509;29;20036;-76
2021/01/19 14:45:34;;;;;;;3.15;1.38;;;;;;;4.37;69.27;98646.31;4888389;29;20095;-71
2021/01/19 14:48:00;;;;;;;7.47;1.30;;;;;;;4.42;67.90;98650.63;4887282;29;20120;-70
2021/01/19 14:50:25;;;;;;;2.42;1.33;;;;;;;4.42;68.75;98654.03;4887718;29;20036;-70
2021/01/19 14:52:50;;;;;;;2.47;1.63;;;;;;;4.31;68.90;98656.56;4887998;29;20116;-70
2021/01/19 14:55:16;;;;;;;1.27;1.17;;;;;;;4.41;68.08;98661.75;4888613;29;20036;-70
2021/01/19 14:57:44;;;;;;;4.88;1.55;;;;;;;4.42;67.67;98666.00;4888181;29;20037;-70
2021/01/19 15:00:11;;;;;;;3.83;1.20;;;;;;;4.42;69.28;98666.00;4888432;29;20033;-70
2021/01/19 15:02:37;;;;;;;9.40;1.77;;;;;;;4.17;69.90;98668.47;4887954;29;20066;-70
2021/01/19 15:05:03;;;;;;;7.43;1.40;;;;;;;4.47;68.89;98672.03;4888334;29;20028;-70
2021/01/19 15:07:29;;;;;;;3.05;1.38;;;;;;;4.32;69.49;98670.25;4887919;29;20041;-70
2021/01/19 15:09:55;;;;;;;2.42;1.42;;;;;;;4.18;70.08;98670.16;4888342;29;20033;-70
2021/01/19 15:12:20;;;;;;;5.05;1.65;;;;;;;4.30;69.47;98674.50;4886714;29;20080;-70
2021/01/19 15:14:46;;;;;;;5.88;1.27;;;;;;;4.30;69.43;98675.38;4892083;29;20056;-75
2021/01/19 15:17:12;;;;;;;4.43;1.52;;;;;;;4.21;70.57;98675.31;4892012;29;20088;-75
2021/01/19 15:19:37;;;;;;;3.03;1.10;;;;;;;4.21;69.49;98680.44;4903775;29;20108;-75
2021/01/19 15:22:05;;;;;;;2.28;1.52;;;;;;;4.23;70.83;98668.47;4885602;29;20458;-75
2021/01/19 15:24:31;;;;;;;5.10;1.58;;;;;;;4.38;69.38;98676.25;4891474;29;20036;-75
2021/01/19 15:26:57;;;;;;;1.60;1.30;;;;;;;4.33;69.30;98677.06;4892153;29;20028;-78
2021/01/19 15:29:22;;;;;;;4.28;1.63;;;;;;;4.37;68.03;98682.22;4891788;29;20127;-70
2021/01/19 15:31:49;;;;;;;1.48;1.10;;;;;;;4.53;67.47;98679.75;4891364;29;20024;-70
2021/01/19 15:34:16;;;;;;;4.43;1.50;;;;;;;4.49;69.03;98680.56;4891563;29;20044;-69
2021/01/19 15:36:42;;;;;;;5.47;1.17;;;;;;;4.56;68.74;98687.47;4891843;29;20028;-70
2021/01/19 15:39:08;;;;;;;2.22;1.05;;;;;;;4.36;68.51;98690.78;4891598;29;20486;-70
2021/01/19 15:41:33;;;;;;;1.30;1.20;;;;;;;4.49;68.41;98685.69;4891559;29;20097;-70
2021/01/19 15:43:59;;;;;;;3.83;1.90;;;;;;;4.33;68.90;98688.19;4891737;29;20024;-70
2021/01/19 15:46:29;;;;;;;2.50;1.67;;;;;;;4.29;69.29;98689.03;4891472;29;20121;-69
2021/01/19 15:48:56;;;;;;;6.88;1.80;;;;;;;4.09;70.90;98686.34;4891656;29;20025;-70
2021/01/19 15:51:21;;;;;;;46.47;20.33;;;;;;;4.12;70.51;98685.53;4891119;29;21141;-75
2021/01/19 15:53:47;;;;;;;9.65;5.57;;;;;;;4.04;70.89;98692.28;4891597;29;20043;-75
2021/01/19 15:56:31;;;;;;;2.90;2.40;;;;;;;4.01;70.24;98689.69;4891387;29;20125;-76
2021/01/19 15:58:58;;;;;;;6.80;2.10;;;;;;;3.96;72.00;98691.38;4891454;29;20091;-75
2021/01/19 16:01:25;;;;;;;4.57;2.10;;;;;;;4.34;69.50;98684.78;4890919;29;20037;-70
2021/01/19 16:03:51;;;;;;;2.75;2.10;;;;;;;4.11;70.65;98683.81;4891301;29;20028;-70
2021/01/19 16:06:16;;;;;;;12.75;4.53;;;;;;;4.07;70.82;98687.19;4891185;29;20079;-69
2021/01/19 16:08:42;;;;;;;16.73;5.43;;;;;;;4.09;71.09;98691.47;4891404;29;20414;-70
2021/01/19 16:11:07;;;;;;;23.10;6.68;;;;;;;4.31;68.65;98687.34;4891077;29;20502;-76
2021/01/19 16:13:33;;;;;;;6.75;3.67;;;;;;;4.27;67.77;98687.31;4891048;29;20108;-70
2021/01/19 16:15:59;;;;;;;6.05;4.00;;;;;;;4.22;67.84;98682.16;4890954;29;20039;-75
2021/01/19 16:18:25;;;;;;;4.38;3.30;;;;;;;4.17;67.84;98688.97;4890883;29;20028;-75
2021/01/19 16:20:50;;;;;;;3.22;2.08;;;;;;;4.31;69.67;98684.78;4890916;29;20020;-75
2021/01/19 16:23:17;;;;;;;8.98;5.13;;;;;;;4.25;68.50;98682.16;4890814;29;20096;-75
2021/01/19 16:25:45;;;;;;;3.67;2.70;;;;;;;4.09;69.01;98681.22;4889917;29;20028;-74
2021/01/19 16:28:12;;;;;;;5.15;2.33;;;;;;;4.12;69.84;98685.53;4890764;29;20033;-75
2021/01/19 16:30:38;;;;;;;4.28;2.75;;;;;;;4.46;67.96;98680.56;4890352;29;20502;-75
2021/01/19 16:33:05;;;;;;;2.30;2.10;;;;;;;4.19;68.36;98682.13;4890655;29;20111;-70
2021/01/19 16:35:31;;;;;;;2.05;1.70;;;;;;;4.20;70.02;98681.28;4890717;29;20040;-76
2021/01/19 16:37:56;;;;;;;2.50;1.80;;;;;;;4.36;68.93;98679.66;4890842;29;20028;-75
2021/01/19 16:40:21;;;;;;;2.72;1.40;;;;;;;4.20;69.27;98683.84;4904559;29;20025;-74
2021/01/19 16:42:47;;;;;;;1.70;1.60;;;;;;;4.12;69.46;98683.81;4890602;29;20056;-75
2021/01/19 16:45:16;;;;;;;1.90;1.40;;;;;;;4.30;69.63;98679.63;4890467;29;20056;-75
2021/01/19 16:47:46;;;;;;;2.07;1.77;;;;;;;4.37;68.57;98689.06;4890452;29;20029;-71
2021/01/19 16:50:14;;;;;;;1.98;1.48;;;;;;;4.23;69.24;98685.56;4890261;29;20112;-69
2021/01/19 16:52:40;;;;;;;2.28;2.08;;;;;;;4.24;70.36;98685.56;4889230;29;20037;-69
2021/01/19 16:55:08;;;;;;;3.50;1.80;;;;;;;4.33;69.41;98679.66;4890202;29;20033;-70
2021/01/19 16:57:34;;;;;;;2.78;1.80;;;;;;;4.52;68.38;98675.47;4890351;29;20036;-70
2021/01/19 16:59:59;;;;;;;3.33;1.80;;;;;;;4.26;69.48;98683.91;4890223;29;20376;-70
2021/01/19 17:02:24;;;;;;;5.53;2.75;;;;;;;4.25;69.60;98686.44;4889888;29;20044;-70
2021/01/19 17:04:49;;;;;;;3.60;2.47;;;;;;;4.05;70.79;98688.88;4890331;29;20510;-70
2021/01/19 17:07:15;;;;;;;2.75;1.77;;;;;;;4.22;69.96;98694.97;4889968;29;20047;-70
